Weather observations for the past three days for
Walnut Ridge Regional Airport
Imperial (Metric)
Date Time (cdt) Wind (mph) Vis. (mi.) Weather Sky Cond. Temperature (ºF) Relative Humidity Wind Chill (°F) Heat Index (°F) Pressure Precipitation (in)
Air Dwpt 6 hour altimeter (in) sea level (mb) 1 hr 3 hr 6 hr
Max. Min.
02 14:56 NW 20 10.00 Mostly Cloudy BKN080 66.9 37 33% 30.05 1017.8
02 13:56 NW 17 G 25 10.00 Mostly Cloudy BKN085 68 36 31% 30.06 1018.0
02 12:56 N 15 10.00 Mostly Cloudy BKN080 BKN095 68 37 69.1 48 32% 30.07 1018.2
02 11:56 NW 10 10.00 A Few Clouds FEW080 66.9 37.9 35% 30.08 1018.8
02 10:56 N 8 10.00 Fair CLR 64.9 37 36% 30.09 1018.9
02 09:56 W 6 10.00 Fair CLR 61 43 52% 30.09 1019.0
02 08:56 SW 5 10.00 Fair CLR 57 42.1 58% 30.09 1019.0
02 07:56 W 7 10.00 Partly Cloudy FEW002 SCT100 51.1 44.1 77% 30.08 1018.8
02 06:56 Calm 10.00 A Few Clouds FEW002 48 43 55.9 46.9 83% 30.07 1018.3
02 05:56 Calm 10.00 Fair CLR 46.9 43 86% 30.05 1017.6
02 04:56 Calm 10.00 Fair CLR 48.9 45 86% 30.05 1017.5
02 03:56 Calm 10.00 Fair CLR 50 46 86% 30.04 1017.2
02 02:56 Calm 10.00 Fair CLR 52 46 80% 0 0.0
02 01:56 W 3 10.00 Fair CLR 53.1 48.9 86% 30.06 1017.9
02 00:56 Calm 10.00 Fair CLR 55.9 46 63 55 70% 30.07 1018.3
01 23:56 NE 3 10.00 Fair CLR 55 48.9 80% 30.05 1017.8
01 22:56 NE 3 10.00 Fair CLR 55.9 48.9 77% 30.05 1017.7
01 21:56 N 3 10.00 Fair CLR 57 45 64% 30.07 1018.3
01 20:56 S 5 10.00 Fair CLR 59 45 60% 30.06 1018.0
01 19:56 SE 6 10.00 Partly Cloudy SCT002 60.1 42.1 52% 30.02 1016.6
01 18:56 E 7 10.00 Fair CLR 63 39 66.9 63 41% 29.99 1015.6
01 17:56 E 10 8.00 Fair CLR 66 37 34% 29.98 1015.4
01 16:56 E 7 10.00 Fair CLR 66 35.1 32% 29.97 1015.0
01 15:56 NE 9 9.00 Fair CLR 66.9 36 32% 30 1016.0
01 14:56 Vrbl 7 10.00 Fair CLR 66 36 33% 30.04 1017.2
01 13:56 NE 8 10.00 Fair CLR 64.9 37 36% 30.06 1018.1
01 12:56 NE 8 10.00 Fair CLR 64 37 64 48.9 37% 30.09 1019.0
01 11:56 NE 13 10.00 Fair CLR 63 39 41% 30.09 1019.1
01 10:56 N 12 10.00 Fair CLR 61 39 44% 30.1 1019.4
01 09:56 NE 14 7.00 Fair CLR 59 39.9 49% 30.09 1019.0
01 08:56 NE 14 4.00 A Few Clouds with Haze FEW070 57 45 64% 30.08 1018.8
01 07:56 N 8 10.00 Fair CLR 54 48 80% 30.08 1018.6
01 06:56 NW 7 10.00 Fair CLR 48.9 48 54 48.9 97% 46 30.06 1018.0
01 05:56 N 6 10.00 Fair CLR 48.9 46 90% 47 30.04 1017.3
01 04:56 Calm 10.00 Fair CLR 51.1 46 83% 0 0.0
01 03:56 NW 9 10.00 Fair CLR 50 46.9 89% 47 30.03 1016.8
01 02:56 W 7 10.00 A Few Clouds FEW095 52 46 80% 30.01 1016.4
01 01:56 NW 6 10.00 Fair CLR 53.1 48 83% 30.02 1016.6
01 00:56 W 5 10.00 Fair CLR 54 50 62.1 54 87% 30.03 1017.0
30 23:56 W 6 10.00 Fair CLR 55.9 48.9 77% 30.03 1016.9
30 22:56 W 5 10.00 Mostly Cloudy BKN110 59 48 67% 30.03 1016.9
30 21:56 W 3 10.00 Mostly Cloudy BKN110 60.1 43 53% 30.03 1016.9
30 20:56 Calm 10.00 Fair CLR 59 48 67% 30.02 1016.5
30 19:56 S 3 10.00 Fair CLR 60.1 46 60% 30.01 1016.2
30 18:56 Calm 10.00 Fair CLR 62.1 44.1 64.9 62.1 52% 30 1016.0
30 17:56 E 5 10.00 Fair CLR 63 42.1 47% 30.01 1016.3
30 16:56 NE 6 10.00 Fair CLR 64 41 43% 30 1016.0
30 15:56 NE 8 10.00 Fair CLR 64 39.9 41% 30.02 1016.6
30 14:56 NE 9 10.00 Fair CLR 63 39.9 43% 30.04 1017.3
30 13:56 E 9 10.00 Fair CLR 64 39.9 41% 30.05 1017.6
30 12:56 NE 13 G 18 10.00 Fair CLR 63 39 63 51.1 41% 30.08 1018.7
30 11:56 NE 13 G 21 10.00 Fair CLR 63 39.9 43% 30.09 1019.0
30 10:56 E 14 10.00 Fair CLR 61 41 48% 30.1 1019.2
30 09:56 NE 14 10.00 Fair CLR 59 42.1 54% 0 0.0
30 08:56 NE 13 10.00 Fair CLR 55.9 44.1 65% 30.08 1018.8
30 07:56 NE 7 5.00 Fair with Haze CLR 53.1 45 74% 30.09 1019.2
30 06:56 N 5 10.00 Fair CLR 51.1 45 57.9 48.9 80% 30.08 1018.8
30 05:56 N 6 10.00 Fair CLR 48.9 44.1 83% 47 30.07 1018.4
30 04:56 N 8 10.00 Fair CLR 50 45 83% 47 30.06 1018.2
30 03:56 Calm 10.00 Fair CLR 52 46 80% 30.05 1017.6
30 02:56 N 9 10.00 Fair CLR 55 45 69% 30.04 1017.3
30 01:56 N 9 10.00 Fair CLR 55.9 45 67% 30.04 1017.4
30 00:56 Calm 10.00 Fair CLR 57.9 46 66.9 57.9 65% 30.05 1017.6
29 23:56 N 6 10.00 Fair CLR 59 48.9 69% 30.05 1017.6
29 22:56 N 8 10.00 Fair CLR 61 48 63% 30.03 1016.8
29 21:56 N 13 10.00 Fair CLR 63 48 58% 30.02 1016.6
29 20:56 N 6 10.00 Fair CLR 64 51.1 63% 29.99 1015.5
29 19:56 N 9 10.00 Fair CLR 64.9 50 59% 29.97 1014.8
29 18:56 N 9 10.00 Fair CLR 66.9 52 72 66.9 59% 29.96 1014.4
29 17:56 N 9 10.00 Fair CLR 69.1 51.1 53% 29.94 1013.8
29 16:56 N 12 10.00 A Few Clouds FEW048 71.1 52 51% 29.94 1013.6
29 15:56 NE 13 10.00 A Few Clouds FEW044 72 53.1 52% 29.96 1014.4
Date Time (cdt) Wind (mph) Vis. (mi.) Weather Sky Cond. Air Dwpt Max. Min. Relative Humidity Wind Chill (°F) Heat Index (°F) altimeter (in) sea level (mb) 1 hr 3 hr 6 hr
6 hour
Temperature (ºF) Pressure Precipitation (in)